createdAt,value
2018-11-27T00:00:28.433Z,99.99
2018-11-27T00:01:28.451Z,99.99
2018-11-27T00:03:21.674Z,99.99
2018-11-27T00:04:21.373Z,99.99
2018-11-27T00:06:14.490Z,99.99
2018-11-27T00:07:14.472Z,99.99
2018-11-27T00:09:07.561Z,99.99
2018-11-27T00:10:07.403Z,99.99
2018-11-27T00:12:00.322Z,99.99
2018-11-27T00:13:00.322Z,99.99
2018-11-27T00:14:53.311Z,99.99
2018-11-27T00:15:53.244Z,99.99
2018-11-27T00:17:46.152Z,99.99
2018-11-27T00:18:46.160Z,99.99
2018-11-27T00:20:39.244Z,99.99
2018-11-27T00:21:39.082Z,99.99
2018-11-27T00:23:31.989Z,99.99
2018-11-27T00:24:31.999Z,99.99
2018-11-27T00:26:25.071Z,99.99
2018-11-27T00:27:24.915Z,99.99
2018-11-27T00:29:17.821Z,99.99
2018-11-27T00:30:17.832Z,99.99
2018-11-27T00:32:10.812Z,99.99
2018-11-27T00:33:10.744Z,99.99
2018-11-27T00:35:03.700Z,99.99
2018-11-27T00:36:03.662Z,99.99
2018-11-27T00:37:56.840Z,99.99
2018-11-27T00:38:56.584Z,99.99
2018-11-27T00:40:49.497Z,99.99
2018-11-27T00:41:49.500Z,99.99
2018-11-27T00:43:42.674Z,99.99
2018-11-27T00:44:42.435Z,99.99
2018-11-27T00:46:35.333Z,99.99
2018-11-27T00:47:35.350Z,99.99
2018-11-27T00:49:28.500Z,99.99
2018-11-27T00:50:28.272Z,99.99
2018-11-27T00:52:21.202Z,99.99
2018-11-27T00:53:21.179Z,99.99
2018-11-27T00:55:14.251Z,99.99
2018-11-27T00:56:14.096Z,99.99
2018-11-27T00:58:07.564Z,99.99
2018-11-27T00:59:07.019Z,99.99
2018-11-27T01:01:00.181Z,99.99
2018-11-27T01:01:59.929Z,99.99
2018-11-27T01:03:52.837Z,99.99
2018-11-27T01:04:52.846Z,99.99
2018-11-27T01:06:45.986Z,99.99
2018-11-27T01:07:45.765Z,99.99
2018-11-27T01:09:38.677Z,99.99
2018-11-27T01:10:38.690Z,99.99
2018-11-27T01:12:31.755Z,99.99
2018-11-27T01:13:31.603Z,99.99
2018-11-27T01:15:24.503Z,99.99
2018-11-27T01:16:24.513Z,99.99
2018-11-27T01:18:17.683Z,99.99
2018-11-27T01:19:17.429Z,99.99
2018-11-27T01:21:10.344Z,99.99
2018-11-27T01:22:10.432Z,99.99
2018-11-27T01:24:03.336Z,99.99
2018-11-27T01:25:03.283Z,99.99
2018-11-27T01:26:56.184Z,99.99
2018-11-27T01:27:56.208Z,99.99
2018-11-27T01:29:49.535Z,99.99
2018-11-27T01:30:49.120Z,99.99
2018-11-27T01:32:42.043Z,99.99
2018-11-27T01:33:42.048Z,99.99
2018-11-27T01:35:35.054Z,99.99
2018-11-27T01:36:35.003Z,99.99
2018-11-27T01:38:27.941Z,99.99
2018-11-27T01:39:27.938Z,99.99
2018-11-27T01:41:21.118Z,99.99
2018-11-27T01:42:20.873Z,99.99
2018-11-27T01:44:14.347Z,99.99
2018-11-27T01:45:13.802Z,99.99
2018-11-27T01:47:06.971Z,99.99
2018-11-27T01:48:06.724Z,99.99
2018-11-27T01:49:59.643Z,99.99
2018-11-27T01:50:59.673Z,99.99
2018-11-27T01:52:54.177Z,99.99
2018-11-27T01:53:52.623Z,99.99
2018-11-27T01:55:45.527Z,99.99
2018-11-27T01:56:45.536Z,99.99
2018-11-27T01:58:38.714Z,99.99
2018-11-27T01:59:38.467Z,99.99
2018-11-27T02:01:31.397Z,99.99
2018-11-27T02:02:31.400Z,99.99
2018-11-27T02:04:24.607Z,99.99
2018-11-27T02:05:24.347Z,99.99
2018-11-27T02:07:17.265Z,99.99
2018-11-27T02:08:17.273Z,99.99
2018-11-27T02:10:10.507Z,99.99
2018-11-27T02:11:10.230Z,99.99
2018-11-27T02:13:03.119Z,99.99
2018-11-27T02:14:03.146Z,99.99
2018-11-27T02:15:56.360Z,99.99
2018-11-27T02:16:56.089Z,99.99
2018-11-27T02:18:48.996Z,99.99
2018-11-27T02:19:49.029Z,99.99
2018-11-27T02:21:42.687Z,99.99
2018-11-27T02:22:41.943Z,99.99
2018-11-27T02:24:35.424Z,99.99
2018-11-27T02:25:34.870Z,99.99
2018-11-27T02:27:29.645Z,99.99
2018-11-27T02:28:27.805Z,99.99
2018-11-27T02:30:20.712Z,99.99
2018-11-27T02:31:20.735Z,99.99
2018-11-27T02:33:13.718Z,99.99
2018-11-27T02:34:13.659Z,99.99
2018-11-27T02:36:06.556Z,99.99
2018-11-27T02:37:06.582Z,99.99
2018-11-27T02:38:59.764Z,99.99
2018-11-27T02:39:59.509Z,99.99
2018-11-27T02:41:52.415Z,99.99
2018-11-27T02:42:52.434Z,99.99
2018-11-27T02:44:45.681Z,99.99
2018-11-27T02:45:45.341Z,99.99
2018-11-27T02:47:38.262Z,99.99
2018-11-27T02:48:38.269Z,99.99
2018-11-27T02:50:31.479Z,99.99
2018-11-27T02:51:31.205Z,99.99
2018-11-27T02:53:24.110Z,99.99
2018-11-27T02:54:24.125Z,99.99
2018-11-27T02:56:17.300Z,99.99
2018-11-27T02:57:17.038Z,99.99
2018-11-27T02:59:10.488Z,99.99
2018-11-27T03:00:09.969Z,99.99
2018-11-27T03:02:03.060Z,99.99
2018-11-27T03:03:02.887Z,99.99
2018-11-27T03:04:55.885Z,99.99
2018-11-27T03:05:55.819Z,99.99
2018-11-27T03:07:49.021Z,98.97
2018-11-27T03:08:48.766Z,97.14
2018-11-27T03:10:41.656Z,98.10
2018-11-27T03:11:41.683Z,97.81
2018-11-27T03:13:34.860Z,98.20
2018-11-27T03:14:34.610Z,94.62
2018-11-27T03:16:28.075Z,94.72
2018-11-27T03:17:27.581Z,94.53
2018-11-27T03:19:20.604Z,96.41
2018-11-27T03:20:20.440Z,94.67
2018-11-27T03:22:13.354Z,95.64
2018-11-27T03:23:13.366Z,93.51
2018-11-27T03:25:06.462Z,94.76
2018-11-27T03:26:06.309Z,94.57
2018-11-27T03:27:59.201Z,91.58
2018-11-27T03:28:59.232Z,90.51
2018-11-27T03:30:52.410Z,86.74
2018-11-27T03:31:52.203Z,87.61
2018-11-27T03:33:45.063Z,87.07
2018-11-27T03:34:45.081Z,87.03
2018-11-27T03:36:38.055Z,88.29
2018-11-27T03:37:37.990Z,89.01
2018-11-27T03:39:30.962Z,89.74
2018-11-27T03:40:30.973Z,90.61
2018-11-27T03:42:24.139Z,88.04
2018-11-27T03:43:23.900Z,87.32
2018-11-27T03:45:16.821Z,87.41
2018-11-27T03:46:16.834Z,86.98
2018-11-27T03:48:10.003Z,90.17
2018-11-27T03:49:09.745Z,89.97
2018-11-27T03:51:02.675Z,88.53
2018-11-27T03:52:02.695Z,87.17
2018-11-27T03:53:55.850Z,87.46
2018-11-27T03:54:55.618Z,87.75
2018-11-27T03:56:48.529Z,87.55
2018-11-27T03:57:48.547Z,88.33
2018-11-27T03:59:44.795Z,87.95
2018-11-27T04:00:41.475Z,86.10
2018-11-27T04:02:34.409Z,86.40
2018-11-27T04:03:34.398Z,86.40
2018-11-27T04:05:27.391Z,87.27
2018-11-27T04:06:27.306Z,87.55
2018-11-27T04:08:20.229Z,86.92
2018-11-27T04:09:20.236Z,85.62
2018-11-27T04:11:13.456Z,87.50
2018-11-27T04:12:13.185Z,86.63
2018-11-27T04:14:06.152Z,86.34
2018-11-27T04:15:06.087Z,84.99
2018-11-27T04:17:00.040Z,86.15
2018-11-27T04:17:58.998Z,84.01
2018-11-27T04:19:51.916Z,85.76
2018-11-27T04:20:51.921Z,85.08
2018-11-27T04:22:45.092Z,84.60
2018-11-27T04:23:44.844Z,85.28
2018-11-27T04:25:37.802Z,82.08
2018-11-27T04:26:37.769Z,82.57
2018-11-27T04:28:30.823Z,83.18
2018-11-27T04:29:30.692Z,83.77
2018-11-27T04:31:24.159Z,84.16
2018-11-27T04:32:23.621Z,83.48
2018-11-27T04:34:16.690Z,81.35
2018-11-27T04:35:16.549Z,80.67
2018-11-27T04:37:09.467Z,83.67
2018-11-27T04:38:09.487Z,81.45
2018-11-27T04:40:02.568Z,83.48
2018-11-27T04:41:02.395Z,83.96
2018-11-27T04:42:55.397Z,82.51
2018-11-27T04:43:55.328Z,81.45
2018-11-27T04:45:48.409Z,82.57
2018-11-27T04:46:48.251Z,82.70
2018-11-27T04:48:41.181Z,80.63
2018-11-27T04:49:41.201Z,80.28
2018-11-27T04:51:34.413Z,80.67
2018-11-27T04:52:34.162Z,80.87
2018-11-27T04:54:27.068Z,82.90
2018-11-27T04:55:27.083Z,83.77
2018-11-27T04:57:20.175Z,80.57
2018-11-27T04:58:20.008Z,80.28
2018-11-27T05:00:13.142Z,81.45
2018-11-27T05:01:12.938Z,81.68
2018-11-27T05:06:19.935Z,80.77
2018-11-27T05:07:09.074Z,80.28
2018-11-27T05:09:01.980Z,81.15
2018-11-27T05:10:02.004Z,80.77
2018-11-27T05:12:00.792Z,81.00
2018-11-27T05:12:54.927Z,81.87
2018-11-27T05:14:47.840Z,80.13
2018-11-27T05:15:47.853Z,81.00
2018-11-27T05:17:41.153Z,80.62
2018-11-27T05:18:41.034Z,80.80
2018-11-27T05:20:35.434Z,78.29
2018-11-27T05:21:33.896Z,78.48
2018-11-27T05:23:26.991Z,79.25
2018-11-27T05:24:26.829Z,80.42
2018-11-27T05:26:19.929Z,79.16
2018-11-27T05:27:19.949Z,78.19
2018-11-27T05:29:13.123Z,75.87
2018-11-27T05:30:12.864Z,75.71
2018-11-27T05:32:05.775Z,78.71
2018-11-27T05:33:05.798Z,80.07
2018-11-27T05:34:59.778Z,78.61
2018-11-27T05:35:59.706Z,78.91
2018-11-27T05:37:52.631Z,79.43
2018-11-27T05:38:52.662Z,78.17
2018-11-27T05:40:45.770Z,80.85
2018-11-27T05:41:45.581Z,78.91
2018-11-27T05:43:38.497Z,76.87
2018-11-27T05:44:38.514Z,80.94
2018-11-27T05:46:31.611Z,80.26
2018-11-27T05:47:31.435Z,81.72
2018-11-27T05:49:24.414Z,81.43
2018-11-27T05:50:24.374Z,81.04
2018-11-27T05:52:17.371Z,80.03
2018-11-27T05:53:17.300Z,78.67
2018-11-27T05:55:10.214Z,79.74
2018-11-27T05:56:10.222Z,81.39
2018-11-27T05:58:03.421Z,81.68
2018-11-27T05:59:03.154Z,80.71
2018-11-27T06:00:56.059Z,77.90
2018-11-27T06:01:56.079Z,78.52
2018-11-27T06:03:49.263Z,78.19
2018-11-27T06:04:49.002Z,78.13
2018-11-27T06:06:41.912Z,78.00
2018-11-27T06:07:41.930Z,78.23
2018-11-27T06:09:35.022Z,77.84
2018-11-27T06:10:34.855Z,79.58
2018-11-27T06:12:27.764Z,77.84
2018-11-27T06:13:27.781Z,77.65
2018-11-27T06:15:20.954Z,81.20
2018-11-27T06:16:20.711Z,80.32
2018-11-27T06:18:13.622Z,80.94
2018-11-27T06:19:13.642Z,79.20
2018-11-27T06:21:06.816Z,76.35
2018-11-27T06:22:06.570Z,75.87
2018-11-27T06:23:59.474Z,75.32
2018-11-27T06:24:59.486Z,75.61
2018-11-27T06:26:52.712Z,76.10
2018-11-27T06:27:52.407Z,76.45
2018-11-27T06:29:45.328Z,76.64
2018-11-27T06:30:45.360Z,76.58
2018-11-27T06:32:38.532Z,76.29
2018-11-27T06:33:38.267Z,74.64
2018-11-27T06:35:31.196Z,75.81
2018-11-27T06:36:31.229Z,75.13
2018-11-27T06:38:24.406Z,75.61
2018-11-27T06:39:24.119Z,75.03
2018-11-27T06:41:17.039Z,75.90
2018-11-27T06:42:17.048Z,74.87
2018-11-27T06:44:10.123Z,74.58
2018-11-27T06:45:09.980Z,76.14
2018-11-27T06:47:02.882Z,71.77
2018-11-27T06:48:02.915Z,71.58
2018-11-27T06:49:55.904Z,72.64
2018-11-27T06:50:55.832Z,73.13
2018-11-27T06:52:48.741Z,72.83
2018-11-27T06:53:48.761Z,73.03
2018-11-27T06:55:41.747Z,73.84
2018-11-27T06:56:41.686Z,74.04
2018-11-27T06:58:34.614Z,73.07
2018-11-27T06:59:34.634Z,72.39
2018-11-27T07:01:27.702Z,72.58
2018-11-27T07:02:27.543Z,72.29
2018-11-27T07:04:20.466Z,72.58
2018-11-27T07:05:20.469Z,74.13
2018-11-27T07:07:13.649Z,73.07
2018-11-27T07:08:13.405Z,72.87
2018-11-27T07:10:06.334Z,73.74
2018-11-27T07:11:06.356Z,72.77
2018-11-27T07:13:00.311Z,74.13
2018-11-27T07:13:59.482Z,73.07
2018-11-27T07:15:52.390Z,72.39
2018-11-27T07:16:52.411Z,73.16
2018-11-27T07:18:49.595Z,72.19
2018-11-27T07:19:45.336Z,71.80
2018-11-27T07:21:38.244Z,70.54
2018-11-27T07:22:38.267Z,71.12
2018-11-27T07:24:31.351Z,71.16
2018-11-27T07:25:31.192Z,71.74
2018-11-27T07:27:24.110Z,71.26
2018-11-27T07:28:24.113Z,71.26
2018-11-27T07:30:17.297Z,71.74
2018-11-27T07:31:17.050Z,71.74
2018-11-27T07:33:09.990Z,72.58
2018-11-27T07:34:09.987Z,72.52
2018-11-27T07:36:03.177Z,71.36
2018-11-27T07:37:02.921Z,71.26
2018-11-27T07:38:55.829Z,71.12
2018-11-27T07:39:55.843Z,70.35
2018-11-27T07:41:49.024Z,70.29
2018-11-27T07:42:48.773Z,70.73
2018-11-27T07:44:41.688Z,70.87
2018-11-27T07:45:41.706Z,71.64
2018-11-27T07:47:34.886Z,71.16
2018-11-27T07:48:34.640Z,71.94
2018-11-27T07:50:27.554Z,71.94
2018-11-27T07:51:27.569Z,71.36
2018-11-27T07:53:20.755Z,73.10
2018-11-27T07:54:20.545Z,72.71
2018-11-27T07:56:13.436Z,72.81
2018-11-27T07:57:13.688Z,72.52
2018-11-27T07:59:06.613Z,72.23
2018-11-27T08:00:06.366Z,72.52
2018-11-27T08:01:59.360Z,71.36
2018-11-27T08:02:59.372Z,71.64
2018-11-27T08:04:52.530Z,71.16
2018-11-27T08:05:52.291Z,70.57
2018-11-27T08:07:45.203Z,70.09
2018-11-27T08:08:45.223Z,70.19
2018-11-27T08:10:59.233Z,70.00
2018-11-27T08:11:38.155Z,71.36
2018-11-27T08:13:31.063Z,73.55
2018-11-27T08:14:31.092Z,72.91
2018-11-27T08:16:24.069Z,72.52
2018-11-27T08:17:24.018Z,72.13
2018-11-27T08:19:16.956Z,70.67
2018-11-27T08:20:16.935Z,72.33
2018-11-27T08:22:10.127Z,71.55
2018-11-27T08:23:09.870Z,70.87
2018-11-27T08:25:03.353Z,70.09
2018-11-27T08:26:02.805Z,70.19
2018-11-27T08:27:55.790Z,70.67
2018-11-27T08:28:55.732Z,71.74
2018-11-27T08:30:48.641Z,71.84
2018-11-27T08:31:48.653Z,70.87
2018-11-27T08:34:05.903Z,71.22
2018-11-27T08:34:41.593Z,72.13
2018-11-27T08:36:34.502Z,70.48
2018-11-27T08:37:34.509Z,73.16
2018-11-27T08:39:27.692Z,71.42
2018-11-27T08:40:27.447Z,72.09
2018-11-27T08:42:20.564Z,72.00
2018-11-27T08:43:20.567Z,71.61
2018-11-27T08:45:13.931Z,72.09
2018-11-27T08:46:13.647Z,71.51
2018-11-27T08:48:06.567Z,71.80
2018-11-27T08:49:06.579Z,72.58
2018-11-27T08:50:59.742Z,74.04
2018-11-27T08:51:59.496Z,74.81
2018-11-27T08:53:52.408Z,72.49
2018-11-27T08:54:52.436Z,71.51
2018-11-27T08:56:45.506Z,72.09
2018-11-27T08:57:45.351Z,72.49
2018-11-27T08:59:39.319Z,71.80
2018-11-27T09:00:38.314Z,72.09
2018-11-27T09:02:38.965Z,71.51
2018-11-27T09:03:31.255Z,71.42
2018-11-27T09:05:24.185Z,72.58
2018-11-27T09:06:24.174Z,71.90
2018-11-27T09:08:17.361Z,69.57
2018-11-27T09:09:17.115Z,69.57
2018-11-27T09:11:10.023Z,70.64
2018-11-27T09:12:10.046Z,71.61
2018-11-27T09:14:03.193Z,71.32
2018-11-27T09:15:02.955Z,70.97
2018-11-27T09:16:55.876Z,71.26
2018-11-27T09:17:55.886Z,71.84
2018-11-27T09:19:49.091Z,70.25
2018-11-27T09:20:48.827Z,70.29
2018-11-27T09:22:41.724Z,69.60
2018-11-27T09:23:41.735Z,69.86
2018-11-27T09:25:34.824Z,70.09
2018-11-27T09:26:34.665Z,70.25
2018-11-27T09:28:27.587Z,68.51
2018-11-27T09:29:27.609Z,68.79
2018-11-27T09:31:41.610Z,69.22
2018-11-27T09:32:20.535Z,68.70
2018-11-27T09:34:13.452Z,68.60
2018-11-27T09:35:13.459Z,68.44
2018-11-27T09:37:06.543Z,68.79
2018-11-27T09:38:06.403Z,68.99
2018-11-27T09:39:59.310Z,68.79
2018-11-27T09:40:59.326Z,68.41
2018-11-27T09:42:52.489Z,68.99
2018-11-27T09:43:52.268Z,68.99
2018-11-27T09:45:45.169Z,68.51
2018-11-27T09:46:45.187Z,68.99
2018-11-27T09:48:38.360Z,68.89
2018-11-27T09:49:38.114Z,69.28
2018-11-27T09:51:31.030Z,69.09
2018-11-27T09:52:31.038Z,68.70
2018-11-27T09:54:24.114Z,68.89
2018-11-27T09:55:23.963Z,68.51
2018-11-27T09:57:16.880Z,68.89
2018-11-27T09:58:16.891Z,68.51
2018-11-27T10:00:09.887Z,68.70
2018-11-27T10:01:09.818Z,68.60
2018-11-27T10:03:02.940Z,69.86
2018-11-27T10:04:02.751Z,69.73
2018-11-27T10:05:55.662Z,70.06
2018-11-27T10:06:55.676Z,70.73
2018-11-27T10:08:48.667Z,71.51
2018-11-27T10:09:48.603Z,71.67
2018-11-27T10:11:42.648Z,72.64
2018-11-27T10:12:41.520Z,72.06
2018-11-27T10:14:34.510Z,72.93
2018-11-27T10:15:34.460Z,72.83
2018-11-27T10:17:27.365Z,71.38
2018-11-27T10:18:27.379Z,71.77
2018-11-27T10:20:20.443Z,71.86
2018-11-27T10:21:20.305Z,71.67
2018-11-27T10:23:13.222Z,72.16
2018-11-27T10:24:13.232Z,71.58
2018-11-27T10:26:06.241Z,72.45
2018-11-27T10:27:06.169Z,73.22
2018-11-27T10:28:59.085Z,74.68
2018-11-27T10:29:59.096Z,74.77
2018-11-27T10:31:53.066Z,74.45
2018-11-27T10:32:52.030Z,74.45
2018-11-27T10:34:44.946Z,73.86
2018-11-27T10:35:44.959Z,74.84
2018-11-27T10:37:38.013Z,74.35
2018-11-27T10:38:37.885Z,74.64
2018-11-27T10:40:30.799Z,72.22
2018-11-27T10:41:30.839Z,71.64
2018-11-27T10:43:23.843Z,71.54
2018-11-27T10:44:23.736Z,71.73
2018-11-27T10:46:16.651Z,70.96
2018-11-27T10:47:16.664Z,71.15
2018-11-27T10:49:09.649Z,71.54
2018-11-27T10:50:09.588Z,71.64
2018-11-27T10:52:02.525Z,72.31
2018-11-27T10:53:02.532Z,72.31
2018-11-27T10:54:55.783Z,72.31
2018-11-27T10:55:55.659Z,72.80
2018-11-27T10:57:48.582Z,72.99
2018-11-27T10:58:48.586Z,73.58
2018-11-27T11:00:41.592Z,74.06
2018-11-27T11:01:41.604Z,74.93
2018-11-27T11:03:34.432Z,74.54
2018-11-27T11:04:34.453Z,75.03
2018-11-27T11:06:27.473Z,75.81
2018-11-27T11:07:27.399Z,76.00
2018-11-27T11:09:20.825Z,76.29
2018-11-27T11:10:20.289Z,77.65
2018-11-27T11:12:13.374Z,78.23
2018-11-27T11:13:13.220Z,78.71
2018-11-27T11:15:06.128Z,79.20
2018-11-27T11:16:06.161Z,80.55
2018-11-27T11:17:59.305Z,80.85
2018-11-27T11:18:59.072Z,81.23
2018-11-27T11:20:51.994Z,81.43
2018-11-27T11:21:52.001Z,81.33
2018-11-27T11:23:45.135Z,81.13
2018-11-27T11:24:44.922Z,81.97
2018-11-27T11:26:38.411Z,80.75
2018-11-27T11:27:37.849Z,80.26
2018-11-27T11:29:31.164Z,80.36
2018-11-27T11:30:30.784Z,80.55
2018-11-27T11:32:23.762Z,80.46
2018-11-27T11:33:23.781Z,80.36
2018-11-27T11:35:41.487Z,80.55
2018-11-27T11:36:16.704Z,80.75
2018-11-27T11:38:09.609Z,80.17
2018-11-27T11:39:09.624Z,79.78
2018-11-27T11:44:38.211Z,79.16
2018-11-27T11:45:05.825Z,79.49
2018-11-27T11:46:58.754Z,80.26
2018-11-27T11:47:58.766Z,80.75
2018-11-27T11:50:23.368Z,81.20
2018-11-27T11:50:51.685Z,81.39
2018-11-27T11:52:45.511Z,80.80
2018-11-27T11:53:44.616Z,79.84
2018-11-27T11:57:09.858Z,79.35
2018-11-27T11:58:09.152Z,80.03
2018-11-27T12:00:02.237Z,79.93
2018-11-27T12:01:02.080Z,79.55
2018-11-27T12:02:55.542Z,79.06
2018-11-27T12:03:55.003Z,79.45
2018-11-27T12:05:48.178Z,79.16
2018-11-27T12:06:47.925Z,79.25
2018-11-27T12:08:40.838Z,79.55
2018-11-27T12:09:40.855Z,80.55
2018-11-27T12:11:34.046Z,80.62
2018-11-27T12:12:33.782Z,80.22
2018-11-27T12:14:26.706Z,79.55
2018-11-27T12:15:26.709Z,78.87
2018-11-27T12:17:19.960Z,79.25
2018-11-27T12:18:19.632Z,80.03
2018-11-27T12:20:12.561Z,79.45
2018-11-27T12:21:12.558Z,79.35
2018-11-27T12:23:05.815Z,78.67
2018-11-27T12:24:05.481Z,78.67
2018-11-27T12:25:58.394Z,79.45
2018-11-27T12:26:58.414Z,78.77
2018-11-27T12:28:51.593Z,78.97
2018-11-27T12:29:51.344Z,79.35
2018-11-27T12:31:44.250Z,80.62
2018-11-27T12:32:44.261Z,80.42
2018-11-27T12:34:37.467Z,80.52
2018-11-27T12:35:37.202Z,80.80
2018-11-27T12:37:30.134Z,80.32
2018-11-27T12:38:30.126Z,80.13
2018-11-27T12:40:23.393Z,81.10
2018-11-27T12:41:23.058Z,81.29
2018-11-27T12:43:15.969Z,81.00
2018-11-27T12:44:15.979Z,81.39
2018-11-27T12:46:09.167Z,81.39
2018-11-27T12:47:08.905Z,82.65
2018-11-27T12:49:01.838Z,85.36
2018-11-27T12:50:01.856Z,85.36
2018-11-27T12:51:55.103Z,86.33
2018-11-27T12:52:54.786Z,86.91
2018-11-27T12:54:47.692Z,88.75
2018-11-27T12:55:47.708Z,89.23
2018-11-27T12:57:51.530Z,90.11
2018-11-27T12:58:40.653Z,89.92
2018-11-27T13:00:33.537Z,91.08
2018-11-27T13:01:33.544Z,91.37
2018-11-27T13:03:26.616Z,92.05
2018-11-27T13:04:26.466Z,91.75
2018-11-27T13:06:19.388Z,91.37
2018-11-27T13:07:19.396Z,92.24
2018-11-27T13:09:12.802Z,92.92
2018-11-27T13:10:12.526Z,92.33
2018-11-27T13:12:05.448Z,92.05
2018-11-27T13:13:05.455Z,92.33
2018-11-27T13:14:58.672Z,92.43
2018-11-27T13:15:58.376Z,92.33
2018-11-27T13:17:51.347Z,92.24
2018-11-27T13:18:51.302Z,92.72
2018-11-27T13:20:44.537Z,91.47
2018-11-27T13:21:44.240Z,90.11
2018-11-27T13:23:37.173Z,89.04
2018-11-27T13:24:37.198Z,88.75
2018-11-27T13:26:30.913Z,89.33
2018-11-27T13:27:30.616Z,89.62
2018-11-27T13:29:24.502Z,89.72
2018-11-27T13:30:24.522Z,90.16
2018-11-27T13:32:17.519Z,89.82
2018-11-27T13:33:17.538Z,89.87
2018-11-27T13:35:10.357Z,91.61
2018-11-27T13:36:10.367Z,90.84
2018-11-27T13:38:03.465Z,91.52
2018-11-27T13:39:03.310Z,91.42
2018-11-27T13:40:56.760Z,90.74
2018-11-27T13:41:56.232Z,90.84
2018-11-27T13:43:49.538Z,90.94
2018-11-27T13:44:49.167Z,90.26
2018-11-27T13:46:42.190Z,90.16
2018-11-27T13:47:42.112Z,89.97
2018-11-27T13:49:35.689Z,90.94
2018-11-27T13:50:35.518Z,91.42
2018-11-27T13:52:28.432Z,91.81
2018-11-27T13:53:28.459Z,92.10
2018-11-27T13:55:21.639Z,92.19
2018-11-27T13:56:21.369Z,92.77
2018-11-27T13:58:14.298Z,92.58
2018-11-27T13:59:14.327Z,92.87
2018-11-27T14:01:07.384Z,93.07
2018-11-27T14:02:07.242Z,93.16
2018-11-27T14:04:00.148Z,92.19
2018-11-27T14:05:00.172Z,93.07
2018-11-27T14:06:53.360Z,93.26
2018-11-27T14:07:53.115Z,93.55
2018-11-27T14:09:46.008Z,94.32
2018-11-27T14:10:46.015Z,94.42
2018-11-27T14:12:39.093Z,95.20
2018-11-27T14:13:38.954Z,95.10
2018-11-27T14:15:31.851Z,95.39
2018-11-27T14:16:31.871Z,95.49
2018-11-27T14:18:25.064Z,94.71
2018-11-27T14:19:24.800Z,94.52
2018-11-27T14:21:17.703Z,93.94
2018-11-27T14:22:17.721Z,94.13
2018-11-27T14:24:10.903Z,94.42
2018-11-27T14:25:10.671Z,94.90
2018-11-27T14:27:03.562Z,95.20
2018-11-27T14:28:03.575Z,95.10
2018-11-27T14:29:56.757Z,95.97
2018-11-27T14:30:56.512Z,95.87
2018-11-27T14:32:49.412Z,95.49
2018-11-27T14:33:49.430Z,95.29
2018-11-27T14:35:42.610Z,95.44
2018-11-27T14:36:42.364Z,96.45
2018-11-27T14:38:35.276Z,96.17
2018-11-27T14:39:35.293Z,96.07
2018-11-27T14:41:28.518Z,96.36
2018-11-27T14:42:28.222Z,95.68
2018-11-27T14:44:21.132Z,95.78
2018-11-27T14:45:21.151Z,95.49
2018-11-27T14:47:14.324Z,96.36
2018-11-27T14:48:14.084Z,96.45
2018-11-27T14:50:06.985Z,97.62
2018-11-27T14:51:07.002Z,97.52
2018-11-27T14:53:00.182Z,97.52
2018-11-27T14:53:59.926Z,97.52
2018-11-27T14:55:52.856Z,97.52
2018-11-27T14:56:52.852Z,97.71
2018-11-27T14:58:50.881Z,96.84
2018-11-27T14:59:45.777Z,96.36
2018-11-27T15:01:38.702Z,96.75
2018-11-27T15:02:38.705Z,97.03
2018-11-27T15:04:31.890Z,96.94
2018-11-27T15:05:31.629Z,96.94
2018-11-27T15:07:24.545Z,97.52
2018-11-27T15:08:24.557Z,96.36
2018-11-27T15:10:17.641Z,97.13
2018-11-27T15:11:17.492Z,96.84
2018-11-27T15:13:10.402Z,97.13
2018-11-27T15:14:10.416Z,97.62
2018-11-27T15:16:03.628Z,98.00
2018-11-27T15:17:03.352Z,97.71
2018-11-27T15:18:56.257Z,98.68
2018-11-27T15:19:56.275Z,98.20
2018-11-27T15:21:49.372Z,99.99
2018-11-27T15:22:49.200Z,99.99
2018-11-27T15:24:42.099Z,99.99
2018-11-27T15:25:42.119Z,99.99
2018-11-27T15:27:35.307Z,99.99
2018-11-27T15:28:35.040Z,99.99
2018-11-27T15:30:27.959Z,99.99
2018-11-27T15:31:27.976Z,99.99
2018-11-27T15:34:52.658Z,99.99
2018-11-27T15:35:52.494Z,99.99
2018-11-27T15:37:45.412Z,99.99
2018-11-27T15:38:45.431Z,99.99
2018-11-27T15:40:38.602Z,99.99
2018-11-27T15:41:38.361Z,99.99
2018-11-27T15:43:31.279Z,99.99
2018-11-27T15:44:31.288Z,99.99
2018-11-27T15:46:24.451Z,99.99
2018-11-27T15:47:24.218Z,99.99
2018-11-27T15:49:17.125Z,99.99
2018-11-27T15:50:17.154Z,99.99
2018-11-27T15:52:10.145Z,99.99
2018-11-27T15:53:10.067Z,99.99
2018-11-27T15:55:03.011Z,99.99
2018-11-27T15:56:02.995Z,99.99
2018-11-27T15:58:17.185Z,99.99
2018-11-27T15:58:55.938Z,99.99
2018-11-27T16:00:48.834Z,99.99
2018-11-27T16:01:48.848Z,99.99
2018-11-27T16:03:42.808Z,99.99
2018-11-27T16:04:41.770Z,99.99
2018-11-27T16:06:34.684Z,99.99
2018-11-27T16:07:34.715Z,99.99
2018-11-27T16:09:27.783Z,99.99
2018-11-27T16:10:27.620Z,99.99
2018-11-27T16:12:20.531Z,99.99
2018-11-27T16:13:20.557Z,99.99
2018-11-27T16:15:13.540Z,99.99
2018-11-27T16:16:13.474Z,99.99
2018-11-27T16:18:06.386Z,99.99
2018-11-27T16:19:06.405Z,99.99
2018-11-27T16:21:00.082Z,99.99
2018-11-27T16:21:59.320Z,99.99
2018-11-27T16:23:52.234Z,99.99
2018-11-27T16:24:52.241Z,99.99
2018-11-27T16:26:45.540Z,99.99
2018-11-27T16:27:45.365Z,99.99
2018-11-27T16:29:38.286Z,99.99
2018-11-27T16:30:38.286Z,99.99
2018-11-27T16:32:31.375Z,99.99
2018-11-27T16:33:31.224Z,99.99
2018-11-27T16:35:24.123Z,99.99
2018-11-27T16:36:24.142Z,99.99
2018-11-27T16:38:18.096Z,99.99
2018-11-27T16:39:17.070Z,99.99
2018-11-27T16:41:09.966Z,99.99
2018-11-27T16:42:09.990Z,99.99
2018-11-27T16:44:03.212Z,99.99
2018-11-27T16:45:02.904Z,99.99
2018-11-27T16:46:55.819Z,99.99
2018-11-27T16:47:55.828Z,99.99
2018-11-27T16:49:48.930Z,99.99
2018-11-27T16:50:48.756Z,99.99
2018-11-27T16:52:41.670Z,99.99
2018-11-27T16:53:41.679Z,99.99
2018-11-27T16:55:44.241Z,99.99
2018-11-27T16:56:34.603Z,99.99
2018-11-27T16:58:27.510Z,99.99
2018-11-27T16:59:27.537Z,99.99
2018-11-27T17:01:21.485Z,99.99
2018-11-27T17:02:20.452Z,99.99
2018-11-27T17:04:13.366Z,99.99
2018-11-27T17:05:13.386Z,99.99
2018-11-27T17:07:06.552Z,99.99
2018-11-27T17:08:06.325Z,99.99
2018-11-27T17:09:59.224Z,99.99
2018-11-27T17:10:59.242Z,99.99
2018-11-27T17:12:52.430Z,99.99
2018-11-27T17:13:52.170Z,99.99
2018-11-27T17:15:45.083Z,99.99
2018-11-27T17:16:45.097Z,99.99
2018-11-27T17:18:38.276Z,99.99
2018-11-27T17:19:38.023Z,99.99
2018-11-27T17:21:30.933Z,99.99
2018-11-27T17:22:30.954Z,99.99
2018-11-27T17:24:24.169Z,99.99
2018-11-27T17:25:23.873Z,99.99
2018-11-27T17:27:16.781Z,99.99
2018-11-27T17:28:16.810Z,99.99
2018-11-27T17:30:09.874Z,99.99
2018-11-27T17:31:09.720Z,99.99
2018-11-27T17:33:02.664Z,99.99
2018-11-27T17:34:02.725Z,99.99
2018-11-27T17:35:55.637Z,99.99
2018-11-27T17:36:55.574Z,99.99
2018-11-27T17:38:48.476Z,99.99
2018-11-27T17:39:48.491Z,99.99
2018-11-27T17:41:41.668Z,99.99
2018-11-27T17:42:41.415Z,99.99
2018-11-27T17:44:34.321Z,99.99
2018-11-27T17:45:34.338Z,99.99
2018-11-27T17:47:27.514Z,99.99
2018-11-27T17:48:27.257Z,99.99
2018-11-27T17:50:20.170Z,99.99
2018-11-27T17:51:20.185Z,99.99
2018-11-27T17:53:13.354Z,99.99
2018-11-27T17:54:13.111Z,99.99
2018-11-27T17:56:06.037Z,99.99
2018-11-27T17:57:06.040Z,99.99
2018-11-27T17:58:59.208Z,99.99
2018-11-27T17:59:58.963Z,99.99
2018-11-27T18:01:51.872Z,99.99
2018-11-27T18:02:51.891Z,99.99
2018-11-27T18:04:44.879Z,99.99
2018-11-27T18:05:44.816Z,99.99
2018-11-27T18:07:37.816Z,99.99
2018-11-27T18:08:37.748Z,99.99
2018-11-27T18:10:30.844Z,99.99
2018-11-27T18:11:30.672Z,99.99
2018-11-27T18:13:23.586Z,99.99
2018-11-27T18:14:23.601Z,99.99
2018-11-27T18:16:16.759Z,99.99
2018-11-27T18:17:16.514Z,99.99
2018-11-27T18:19:09.424Z,99.99
2018-11-27T18:20:09.449Z,99.99
2018-11-27T18:22:02.540Z,99.99
2018-11-27T18:23:02.378Z,99.99
2018-11-27T18:24:55.279Z,99.99
2018-11-27T18:25:55.297Z,99.99
2018-11-27T18:27:48.375Z,99.99
2018-11-27T18:28:48.223Z,99.99
2018-11-27T18:30:41.132Z,99.99
2018-11-27T18:31:41.149Z,99.99
2018-11-27T18:33:34.310Z,99.99
2018-11-27T18:34:34.072Z,99.99
2018-11-27T18:36:26.971Z,99.99
2018-11-27T18:37:26.988Z,99.99
2018-11-27T18:39:20.182Z,99.99
2018-11-27T18:40:19.930Z,99.99
2018-11-27T18:42:12.823Z,99.99